createdAt,value
2022-12-27T00:00:58.950Z,80.63
2022-12-27T00:03:27.009Z,80.00
2022-12-27T00:05:54.985Z,79.94
2022-12-27T00:08:22.946Z,79.72
2022-12-27T00:10:51.143Z,79.75
2022-12-27T00:13:19.082Z,80.16
2022-12-27T00:15:46.966Z,79.99
2022-12-27T00:18:15.055Z,79.63
2022-12-27T00:20:43.037Z,79.30
2022-12-27T00:23:10.991Z,79.90
2022-12-27T00:25:38.978Z,79.66
2022-12-27T00:28:06.889Z,79.22
2022-12-27T00:30:34.979Z,79.21
2022-12-27T00:33:02.895Z,79.22
2022-12-27T00:35:30.891Z,78.78
2022-12-27T00:37:59.222Z,78.74
2022-12-27T00:40:29.169Z,79.19
2022-12-27T00:42:57.168Z,79.55
2022-12-27T00:45:25.120Z,79.65
2022-12-27T00:47:53.093Z,80.11
2022-12-27T00:50:21.129Z,79.90
2022-12-27T00:52:49.113Z,79.44
2022-12-27T00:55:17.217Z,79.22
2022-12-27T00:57:45.182Z,80.12
2022-12-27T01:00:13.956Z,79.88
2022-12-27T01:02:42.106Z,79.94
2022-12-27T01:05:10.257Z,79.44
2022-12-27T01:07:38.269Z,79.79
2022-12-27T01:10:06.768Z,80.70
2022-12-27T01:12:36.125Z,80.69
2022-12-27T01:15:06.189Z,80.34
2022-12-27T01:17:34.698Z,80.02
2022-12-27T01:20:03.359Z,79.88
2022-12-27T01:22:31.308Z,79.26
2022-12-27T01:24:59.234Z,79.56
2022-12-27T01:27:27.305Z,79.52
2022-12-27T01:29:55.277Z,80.07
2022-12-27T01:32:23.531Z,79.74
2022-12-27T01:34:52.105Z,79.51
2022-12-27T01:37:20.028Z,79.96
2022-12-27T01:39:47.936Z,80.21
2022-12-27T01:42:38.433Z,79.25
2022-12-27T01:45:32.959Z,79.80
2022-12-27T01:48:12.437Z,79.34
2022-12-27T01:50:55.391Z,80.12
2022-12-27T01:53:30.134Z,80.15
2022-12-27T01:56:03.836Z,80.24
2022-12-27T01:58:37.414Z,80.17
2022-12-27T02:01:11.587Z,81.04
2022-12-27T02:03:45.765Z,80.95
2022-12-27T02:06:15.429Z,80.84
2022-12-27T02:08:49.164Z,81.04
2022-12-27T02:11:39.971Z,81.42
2022-12-27T02:14:08.184Z,80.67
2022-12-27T02:16:36.078Z,80.45
2022-12-27T02:19:08.591Z,80.30
2022-12-27T02:21:42.185Z,80.09
2022-12-27T02:24:37.610Z,80.46
2022-12-27T02:27:38.817Z,79.58
2022-12-27T02:30:08.903Z,80.48
2022-12-27T02:32:45.417Z,79.97
2022-12-27T02:35:27.191Z,80.79
2022-12-27T02:38:02.805Z,80.48
2022-12-27T02:40:51.220Z,80.41
2022-12-27T02:43:37.609Z,80.24
2022-12-27T02:46:46.823Z,80.12
2022-12-27T02:49:48.618Z,80.53
2022-12-27T02:53:07.273Z,80.18
2022-12-27T02:56:14.897Z,80.66
2022-12-27T03:00:37.618Z,80.59
2022-12-27T03:03:50.728Z,81.30
2022-12-27T03:06:42.876Z,81.16
2022-12-27T03:09:41.857Z,80.84
2022-12-27T03:12:36.074Z,80.63
2022-12-27T03:15:35.376Z,80.58
2022-12-27T03:18:11.134Z,80.82
2022-12-27T03:20:59.174Z,81.38
2022-12-27T03:23:47.926Z,80.71
2022-12-27T03:26:17.942Z,81.63
2022-12-27T03:29:07.371Z,81.03
2022-12-27T03:32:02.502Z,80.80
2022-12-27T03:34:41.057Z,80.02
2022-12-27T03:37:34.488Z,80.42
2022-12-27T03:40:20.735Z,79.70
2022-12-27T03:43:13.238Z,79.93
2022-12-27T03:46:16.247Z,79.28
2022-12-27T03:48:57.894Z,79.47
2022-12-27T03:51:30.378Z,80.25
2022-12-27T03:54:07.117Z,80.11
2022-12-27T03:56:35.860Z,79.08
2022-12-27T03:59:05.414Z,79.62
2022-12-27T04:01:33.403Z,79.75
2022-12-27T04:04:01.398Z,80.35
2022-12-27T04:06:29.462Z,80.06
2022-12-27T04:09:15.776Z,80.55
2022-12-27T04:12:02.446Z,80.30
2022-12-27T04:14:48.971Z,79.92
2022-12-27T04:17:36.221Z,79.61
2022-12-27T04:20:22.909Z,79.92
2022-12-27T04:23:09.165Z,80.21
2022-12-27T04:25:55.488Z,79.82
2022-12-27T04:28:41.587Z,79.85
2022-12-27T04:31:28.660Z,80.77
2022-12-27T04:34:15.656Z,80.12
2022-12-27T04:36:43.746Z,80.72
2022-12-27T04:39:13.166Z,80.58
2022-12-27T04:41:59.598Z,80.57
2022-12-27T04:44:45.719Z,80.88
2022-12-27T04:47:34.507Z,80.71
2022-12-27T04:50:22.577Z,80.06
2022-12-27T04:53:11.285Z,80.26
2022-12-27T04:55:39.230Z,80.11
2022-12-27T04:58:07.115Z,80.41
2022-12-27T05:00:53.807Z,80.14
2022-12-27T05:03:24.457Z,80.38
2022-12-27T05:05:53.928Z,80.46
2022-12-27T05:08:41.634Z,80.59
2022-12-27T05:11:29.544Z,80.60
2022-12-27T05:14:00.114Z,80.36
2022-12-27T05:16:35.959Z,80.73
2022-12-27T05:19:08.909Z,80.36
2022-12-27T05:21:38.426Z,79.78
2022-12-27T05:24:24.863Z,79.84
2022-12-27T05:26:56.488Z,79.95
2022-12-27T05:29:24.517Z,79.71
2022-12-27T05:31:52.740Z,80.33
2022-12-27T05:34:20.777Z,80.85
2022-12-27T05:36:48.704Z,80.58
2022-12-27T05:39:16.576Z,81.51
2022-12-27T05:41:44.690Z,82.10
2022-12-27T05:44:12.570Z,81.82
2022-12-27T05:46:40.795Z,81.15
2022-12-27T05:49:08.707Z,81.10
2022-12-27T05:51:37.271Z,80.40
2022-12-27T05:54:05.487Z,80.89
2022-12-27T05:56:37.436Z,80.70
2022-12-27T05:59:08.222Z,80.71
2022-12-27T06:01:36.276Z,80.12
2022-12-27T06:04:04.368Z,80.09
2022-12-27T06:06:34.027Z,80.89
2022-12-27T06:09:02.320Z,80.88
2022-12-27T06:11:30.234Z,80.85
2022-12-27T06:13:58.056Z,81.18
2022-12-27T06:16:26.130Z,81.16
2022-12-27T06:18:53.987Z,81.00
2022-12-27T06:21:22.378Z,80.42
2022-12-27T06:23:50.650Z,80.28
2022-12-27T06:26:22.347Z,80.34
2022-12-27T06:28:50.901Z,80.57
2022-12-27T06:31:20.239Z,80.97
2022-12-27T06:33:49.047Z,81.27
2022-12-27T06:36:23.365Z,80.95
2022-12-27T06:38:51.325Z,81.31
2022-12-27T06:41:19.399Z,81.29
2022-12-27T06:43:48.226Z,80.81
2022-12-27T06:46:18.852Z,80.19
2022-12-27T06:48:47.950Z,81.06
2022-12-27T06:51:18.290Z,81.46
2022-12-27T06:53:48.502Z,80.47
2022-12-27T06:56:18.191Z,80.91
2022-12-27T06:58:47.343Z,80.56
2022-12-27T07:01:23.870Z,81.50
2022-12-27T07:03:54.730Z,81.05
2022-12-27T07:06:24.483Z,80.99
2022-12-27T07:08:53.521Z,81.06
2022-12-27T07:11:22.855Z,80.54
2022-12-27T07:13:53.675Z,79.88
2022-12-27T07:16:27.028Z,79.44
2022-12-27T07:18:56.897Z,79.94
2022-12-27T07:21:27.298Z,79.32
2022-12-27T07:23:56.025Z,79.27
2022-12-27T07:26:28.137Z,78.67
2022-12-27T07:28:58.598Z,78.95
2022-12-27T07:31:30.013Z,79.28
2022-12-27T07:34:00.636Z,78.44
2022-12-27T07:36:32.689Z,78.82
2022-12-27T07:39:00.744Z,78.99
2022-12-27T07:41:29.225Z,78.31
2022-12-27T07:43:57.401Z,79.16
2022-12-27T07:46:27.022Z,76.09
2022-12-27T07:48:56.504Z,71.90
2022-12-27T07:51:25.521Z,67.85
2022-12-27T07:53:54.129Z,68.38
2022-12-27T07:56:26.659Z,68.54
2022-12-27T07:58:57.865Z,68.52
2022-12-27T08:01:28.874Z,67.52
2022-12-27T08:03:57.288Z,69.58
2022-12-27T08:06:35.698Z,70.05
2022-12-27T08:09:07.040Z,70.20
2022-12-27T08:11:34.983Z,72.87
2022-12-27T08:14:03.188Z,74.54
2022-12-27T08:16:31.295Z,76.20
2022-12-27T08:19:04.799Z,75.85
2022-12-27T08:21:36.969Z,74.61
2022-12-27T08:24:05.468Z,76.15
2022-12-27T08:26:33.395Z,74.80
2022-12-27T08:29:01.572Z,72.12
2022-12-27T08:31:30.092Z,71.70
2022-12-27T08:33:58.960Z,72.42
2022-12-27T08:39:15.421Z,72.53
2022-12-27T08:41:43.834Z,72.76
2022-12-27T08:44:12.865Z,73.77
2022-12-27T08:46:41.301Z,73.28
2022-12-27T08:49:09.599Z,75.18
2022-12-27T08:51:41.046Z,75.75
2022-12-27T08:54:10.212Z,75.66
2022-12-27T08:56:38.169Z,74.66
2022-12-27T08:59:06.658Z,72.70
2022-12-27T09:01:35.127Z,76.96
2022-12-27T09:04:03.500Z,76.63
2022-12-27T09:06:31.735Z,75.31
2022-12-27T09:09:01.618Z,74.93
2022-12-27T09:11:33.440Z,74.52
2022-12-27T09:14:04.212Z,76.50
2022-12-27T09:16:36.635Z,77.73
2022-12-27T09:19:05.390Z,75.49
2022-12-27T09:21:34.602Z,76.54
2022-12-27T09:24:03.403Z,74.69
2022-12-27T09:26:31.489Z,75.44
2022-12-27T09:29:00.128Z,75.83
2022-12-27T09:31:28.859Z,74.67
2022-12-27T09:33:57.962Z,75.40
2022-12-27T09:36:30.157Z,77.27
2022-12-27T09:38:59.199Z,76.22
2022-12-27T09:42:45.888Z,79.26
2022-12-27T09:45:06.804Z,78.61
2022-12-27T09:47:49.633Z,69.71
2022-12-27T09:50:33.811Z,66.86
2022-12-27T09:53:14.241Z,61.04
2022-12-27T09:55:53.243Z,56.03
2022-12-27T09:58:38.629Z,53.02
2022-12-27T10:01:32.807Z,52.38
2022-12-27T10:04:02.666Z,48.55
2022-12-27T10:06:34.108Z,47.01
2022-12-27T10:09:24.120Z,45.71
2022-12-27T10:12:04.798Z,42.50
2022-12-27T10:15:04.662Z,40.39
2022-12-27T10:17:52.702Z,38.37
2022-12-27T10:20:48.666Z,37.54
2022-12-27T10:23:23.128Z,38.98
2022-12-27T10:26:02.093Z,38.14
2022-12-27T10:28:58.866Z,36.08
2022-12-27T10:31:27.953Z,37.63
2022-12-27T10:33:58.397Z,37.72
2022-12-27T10:36:29.491Z,36.93
2022-12-27T10:38:57.824Z,35.04
2022-12-27T10:41:52.052Z,31.77
2022-12-27T10:44:20.369Z,29.83
2022-12-27T10:46:56.539Z,27.87
2022-12-27T10:49:30.005Z,26.44
2022-12-27T10:52:08.173Z,25.10
2022-12-27T10:54:49.688Z,24.05
2022-12-27T10:57:30.315Z,22.88
2022-12-27T11:00:19.904Z,23.07
2022-12-27T11:03:01.027Z,22.29
2022-12-27T11:05:31.724Z,22.42
2022-12-27T11:08:01.634Z,21.62
2022-12-27T11:10:34.258Z,23.58
2022-12-27T11:13:05.518Z,23.67
2022-12-27T11:15:43.346Z,23.05
2022-12-27T11:18:18.105Z,22.35
2022-12-27T11:21:04.692Z,22.97
2022-12-27T11:23:44.785Z,23.06
2022-12-27T11:26:26.018Z,23.13
2022-12-27T11:28:58.820Z,24.06
2022-12-27T11:31:31.257Z,24.99
2022-12-27T11:34:08.170Z,24.73
2022-12-27T11:36:42.464Z,25.30
2022-12-27T11:39:37.981Z,25.79
2022-12-27T11:42:18.669Z,25.92
2022-12-27T11:45:13.353Z,25.74
2022-12-27T11:47:50.356Z,25.54
2022-12-27T11:50:27.767Z,25.12
2022-12-27T11:53:23.446Z,24.18
2022-12-27T11:56:00.087Z,24.72
2022-12-27T11:59:00.297Z,25.42
2022-12-27T12:02:06.981Z,28.28
2022-12-27T12:04:35.225Z,28.61
2022-12-27T12:07:39.747Z,29.82
2022-12-27T12:10:29.455Z,32.32
2022-12-27T12:13:18.546Z,33.19
2022-12-27T12:16:01.617Z,35.18
2022-12-27T12:18:56.110Z,36.08
2022-12-27T12:21:27.818Z,37.17
2022-12-27T12:24:14.169Z,38.80
2022-12-27T12:26:58.799Z,40.81
2022-12-27T12:29:46.963Z,42.31
2022-12-27T12:32:22.317Z,43.27
2022-12-27T12:35:27.962Z,44.47
2022-12-27T12:38:13.649Z,43.83
2022-12-27T12:40:47.683Z,43.84
2022-12-27T12:43:19.020Z,45.60
2022-12-27T12:46:14.709Z,47.41
2022-12-27T12:48:52.838Z,48.58
2022-12-27T12:51:31.417Z,49.94
2022-12-27T12:54:20.591Z,50.86
2022-12-27T12:57:10.275Z,52.30
2022-12-27T12:59:57.015Z,52.44
2022-12-27T13:02:46.953Z,53.23
2022-12-27T13:05:56.421Z,54.03
2022-12-27T13:08:39.031Z,54.17
2022-12-27T13:11:25.758Z,55.80
2022-12-27T13:14:32.679Z,55.75
2022-12-27T13:17:35.096Z,55.90
2022-12-27T13:20:34.324Z,56.22
2022-12-27T13:23:41.302Z,56.65
2022-12-27T13:26:25.299Z,56.78
2022-12-27T13:29:15.508Z,56.81
2022-12-27T13:32:10.194Z,57.59
2022-12-27T13:35:03.553Z,58.06
2022-12-27T13:37:53.561Z,58.46
2022-12-27T13:40:59.263Z,59.87
2022-12-27T13:44:01.996Z,60.19
2022-12-27T13:46:42.402Z,60.72
2022-12-27T13:49:38.161Z,60.78
2022-12-27T13:52:27.346Z,61.25
2022-12-27T13:55:20.953Z,61.50
2022-12-27T13:58:08.257Z,61.88
2022-12-27T14:00:47.003Z,62.68
2022-12-27T14:03:33.566Z,62.34
2022-12-27T14:06:06.376Z,62.86
2022-12-27T14:09:29.520Z,63.06
2022-12-27T14:12:15.995Z,63.49
2022-12-27T14:14:47.276Z,63.26
2022-12-27T14:17:24.333Z,63.32
2022-12-27T14:19:55.397Z,63.50
2022-12-27T14:22:55.195Z,64.27
2022-12-27T14:25:52.365Z,64.63
2022-12-27T14:29:00.123Z,64.41
2022-12-27T14:32:05.880Z,65.50
2022-12-27T14:34:42.551Z,65.60
2022-12-27T14:37:35.329Z,65.96
2022-12-27T14:40:12.680Z,65.53
2022-12-27T14:43:16.126Z,66.83
2022-12-27T14:46:08.318Z,66.66
2022-12-27T14:48:45.835Z,66.82
2022-12-27T14:55:02.717Z,67.34
2022-12-27T14:57:49.855Z,67.44
2022-12-27T15:00:19.974Z,67.48
2022-12-27T15:02:51.336Z,67.90
2022-12-27T15:05:27.727Z,67.78
2022-12-27T15:08:07.408Z,67.28
2022-12-27T15:10:54.253Z,67.75
2022-12-27T15:13:39.285Z,67.31
2022-12-27T15:16:16.283Z,67.69
2022-12-27T15:19:03.013Z,68.04
2022-12-27T15:21:49.148Z,69.42
2022-12-27T15:24:35.572Z,69.24
2022-12-27T15:27:19.990Z,68.39
2022-12-27T15:30:22.251Z,67.88
2022-12-27T15:33:04.625Z,69.00
2022-12-27T15:36:03.319Z,68.88
2022-12-27T15:38:51.073Z,69.40
2022-12-27T15:41:42.080Z,71.74
2022-12-27T15:44:23.805Z,72.43
2022-12-27T15:47:29.576Z,72.04
2022-12-27T15:50:34.680Z,71.92
2022-12-27T15:53:28.011Z,71.95
2022-12-27T15:55:59.089Z,72.14
2022-12-27T15:58:27.998Z,72.38
2022-12-27T16:01:23.661Z,73.24
2022-12-27T16:03:55.518Z,72.36
2022-12-27T16:06:35.969Z,72.49
2022-12-27T16:09:25.878Z,72.14
2022-12-27T16:12:09.453Z,71.51
2022-12-27T16:14:40.635Z,72.46
2022-12-27T16:17:27.490Z,72.10
2022-12-27T16:20:01.353Z,71.50
2022-12-27T16:22:42.980Z,71.64
2022-12-27T16:25:32.706Z,71.89
2022-12-27T16:28:24.145Z,72.40
2022-12-27T16:30:55.087Z,72.24
2022-12-27T16:33:26.152Z,72.29
2022-12-27T16:36:12.597Z,71.52
2022-12-27T16:38:57.118Z,71.36
2022-12-27T16:41:25.505Z,71.83
2022-12-27T16:44:02.678Z,72.33
2022-12-27T16:46:57.310Z,72.78
2022-12-27T16:49:39.715Z,72.79
2022-12-27T16:52:15.344Z,72.89
2022-12-27T16:54:55.575Z,72.56
2022-12-27T16:57:26.995Z,72.50
2022-12-27T17:00:11.553Z,73.19
2022-12-27T17:02:42.561Z,73.89
2022-12-27T17:05:16.863Z,73.83
2022-12-27T17:07:58.474Z,74.08
2022-12-27T17:10:30.568Z,74.30
2022-12-27T17:13:13.703Z,75.04
2022-12-27T17:16:08.366Z,75.11
2022-12-27T17:18:48.620Z,74.86
2022-12-27T17:21:40.783Z,75.75
2022-12-27T17:24:10.783Z,76.19
2022-12-27T17:27:03.316Z,76.55
2022-12-27T17:29:49.646Z,76.37
2022-12-27T17:32:50.388Z,76.35
2022-12-27T17:35:52.868Z,75.71
2022-12-27T17:38:36.930Z,75.62
2022-12-27T17:41:17.660Z,76.20
2022-12-27T17:44:25.370Z,77.12
2022-12-27T17:47:16.071Z,77.73
2022-12-27T17:49:45.110Z,78.09
2022-12-27T17:52:37.405Z,78.09
2022-12-27T17:55:43.132Z,77.78
2022-12-27T17:58:16.602Z,77.82
2022-12-27T18:00:55.921Z,77.75
2022-12-27T18:03:40.544Z,77.30
2022-12-27T18:06:09.344Z,77.22
2022-12-27T18:08:39.242Z,76.82
2022-12-27T18:11:10.748Z,77.58
2022-12-27T18:13:45.858Z,77.82
2022-12-27T18:16:28.148Z,77.73
2022-12-27T18:19:00.353Z,77.69
2022-12-27T18:21:30.540Z,77.38
2022-12-27T18:23:59.231Z,77.42
2022-12-27T18:27:00.275Z,77.43
2022-12-27T18:29:29.014Z,78.26
2022-12-27T18:32:03.003Z,78.25
2022-12-27T18:34:41.653Z,78.02
2022-12-27T18:37:13.779Z,77.83
2022-12-27T18:39:51.748Z,77.24
2022-12-27T18:42:37.821Z,77.74
2022-12-27T18:45:20.026Z,77.52
2022-12-27T18:47:51.602Z,76.96
2022-12-27T18:50:23.118Z,76.56
2022-12-27T18:53:28.654Z,76.43
2022-12-27T18:56:06.984Z,75.91
2022-12-27T18:58:35.610Z,75.66
2022-12-27T19:01:25.563Z,76.32
2022-12-27T19:04:15.540Z,76.24
2022-12-27T19:07:08.821Z,77.58
2022-12-27T19:09:51.408Z,77.43
2022-12-27T19:12:29.034Z,77.91
2022-12-27T19:14:58.102Z,77.35
2022-12-27T19:17:30.044Z,77.07
2022-12-27T19:20:02.495Z,76.72
2022-12-27T19:22:36.576Z,77.54
2022-12-27T19:25:19.250Z,77.83
2022-12-27T19:28:16.675Z,78.62
2022-12-27T19:30:51.955Z,79.29
2022-12-27T19:33:30.573Z,78.97
2022-12-27T19:36:00.092Z,79.05
2022-12-27T19:38:31.919Z,79.29
2022-12-27T19:41:04.165Z,78.89
2022-12-27T19:43:42.923Z,78.85
2022-12-27T19:46:13.418Z,79.22
2022-12-27T19:48:42.141Z,79.35
2022-12-27T19:51:16.511Z,79.04
2022-12-27T19:53:55.428Z,78.16
2022-12-27T19:56:26.413Z,78.82
2022-12-27T19:58:54.740Z,79.14
2022-12-27T20:01:23.376Z,78.58
2022-12-27T20:03:51.795Z,79.02
2022-12-27T20:06:24.143Z,78.60
2022-12-27T20:08:55.385Z,79.05
2022-12-27T20:11:23.965Z,78.92
2022-12-27T20:13:51.929Z,78.56
2022-12-27T20:16:20.908Z,78.59
2022-12-27T20:18:49.003Z,79.15
2022-12-27T20:21:19.282Z,79.53
2022-12-27T20:23:47.868Z,79.72
2022-12-27T20:26:21.762Z,79.17
2022-12-27T20:28:50.290Z,78.93
2022-12-27T20:31:20.442Z,79.51
2022-12-27T20:33:53.352Z,78.93
2022-12-27T20:36:22.762Z,79.49
2022-12-27T20:38:50.625Z,79.50
2022-12-27T20:41:19.888Z,79.37
2022-12-27T20:43:47.759Z,79.41
2022-12-27T20:46:17.974Z,79.54
2022-12-27T20:48:47.592Z,79.14
2022-12-27T20:51:21.354Z,79.21
2022-12-27T20:53:57.459Z,78.72
2022-12-27T20:56:26.206Z,78.92
2022-12-27T20:58:54.272Z,79.15
2022-12-27T21:01:24.479Z,79.46
2022-12-27T21:03:53.640Z,78.86
2022-12-27T21:06:27.274Z,79.28
2022-12-27T21:08:57.819Z,78.90
2022-12-27T21:11:33.915Z,78.77
2022-12-27T21:14:03.973Z,78.53
2022-12-27T21:16:34.074Z,78.92
2022-12-27T21:19:05.102Z,79.19
2022-12-27T21:21:36.096Z,79.53
2022-12-27T21:24:06.483Z,78.35
2022-12-27T21:26:36.697Z,79.01
2022-12-27T21:29:06.941Z,79.05
2022-12-27T21:31:36.657Z,79.38
2022-12-27T21:34:05.097Z,79.41
2022-12-27T21:36:34.301Z,79.41
2022-12-27T21:39:03.604Z,79.15
2022-12-27T21:41:33.526Z,79.80
2022-12-27T21:44:01.678Z,79.66
2022-12-27T21:46:33.241Z,80.22
2022-12-27T21:49:09.686Z,79.88
2022-12-27T21:51:38.354Z,79.40
2022-12-27T21:54:07.328Z,79.54
2022-12-27T21:56:35.582Z,79.92
2022-12-27T21:59:07.530Z,79.49
2022-12-27T22:01:50.100Z,79.72
2022-12-27T22:04:21.867Z,79.44
2022-12-27T22:06:50.802Z,79.53
2022-12-27T22:09:19.680Z,79.79
2022-12-27T22:11:48.154Z,80.45
2022-12-27T22:14:18.740Z,80.11
2022-12-27T22:16:49.864Z,80.31
2022-12-27T22:19:17.962Z,80.56
2022-12-27T22:21:45.947Z,79.83
2022-12-27T22:24:19.731Z,80.18
2022-12-27T22:26:48.861Z,80.51
2022-12-27T22:29:17.964Z,80.71
2022-12-27T22:31:46.764Z,81.18
2022-12-27T22:34:14.799Z,81.26
2022-12-27T22:36:42.937Z,81.50
2022-12-27T22:39:10.977Z,81.50
2022-12-27T22:41:39.033Z,81.30
2022-12-27T22:44:10.543Z,81.48
2022-12-27T22:47:06.992Z,81.11
2022-12-27T22:49:26.977Z,81.59
2022-12-27T22:51:54.787Z,81.01
2022-12-27T22:55:05.401Z,80.86
2022-12-27T22:57:10.845Z,80.41
2022-12-27T22:59:38.788Z,80.74
2022-12-27T23:02:06.846Z,80.33
2022-12-27T23:04:35.459Z,80.59
2022-12-27T23:07:03.619Z,80.42
2022-12-27T23:09:31.594Z,80.91
2022-12-27T23:11:59.504Z,81.08
2022-12-27T23:14:27.628Z,80.49
2022-12-27T23:16:55.751Z,80.01
2022-12-27T23:19:24.567Z,81.33
2022-12-27T23:21:52.406Z,80.38
2022-12-27T23:24:20.446Z,80.64
2022-12-27T23:26:49.015Z,80.78
2022-12-27T23:29:16.857Z,80.18
2022-12-27T23:31:54.683Z,79.95
2022-12-27T23:34:28.692Z,79.81
2022-12-27T23:37:01.509Z,79.59
2022-12-27T23:39:29.455Z,80.24
2022-12-27T23:41:57.541Z,81.13
2022-12-27T23:44:33.866Z,80.74
2022-12-27T23:47:04.529Z,80.75
2022-12-27T23:49:32.616Z,80.99
2022-12-27T23:52:00.518Z,80.80
2022-12-27T23:54:28.484Z,80.17
2022-12-27T23:56:56.429Z,80.87
2022-12-27T23:59:24.832Z,80.81
